sensor_id;sensor_type;location;lat;lon;timestamp;pressure;altitude;pressure_sealevel;temperature;humidity
81181;BME280;70650;51.408;7.132;2023-06-24T00:00:05;101400.69;;;15.98;82.04
81181;BME280;70650;51.408;7.132;2023-06-24T00:02:33;101399.16;;;15.94;81.24
81181;BME280;70650;51.408;7.132;2023-06-24T00:04:59;101400.69;;;15.98;81.26
81181;BME280;70650;51.408;7.132;2023-06-24T00:07:25;101409.16;;;15.90;81.65
81181;BME280;70650;51.408;7.132;2023-06-24T00:09:51;101400.00;;;15.80;82.54
81181;BME280;70650;51.408;7.132;2023-06-24T00:12:16;101404.63;;;15.76;82.61
81181;BME280;70650;51.408;7.132;2023-06-24T00:14:45;101403.19;;;15.71;82.43
81181;BME280;70650;51.408;7.132;2023-06-24T00:17:10;101401.47;;;15.70;82.47
81181;BME280;70650;51.408;7.132;2023-06-24T00:19:36;101399.50;;;15.73;81.41
81181;BME280;70650;51.408;7.132;2023-06-24T00:22:02;101405.78;;;15.72;81.72
81181;BME280;70650;51.408;7.132;2023-06-24T00:24:28;101398.72;;;15.71;82.17
81181;BME280;70650;51.408;7.132;2023-06-24T00:26:55;101397.09;;;15.69;82.45
81181;BME280;70650;51.408;7.132;2023-06-24T00:29:21;101395.19;;;15.71;82.30
81181;BME280;70650;51.408;7.132;2023-06-24T00:31:46;101397.47;;;15.62;81.67
81181;BME280;70650;51.408;7.132;2023-06-24T00:34:12;101389.09;;;15.53;82.38
81181;BME280;70650;51.408;7.132;2023-06-24T00:36:37;101379.75;;;15.46;82.84
81181;BME280;70650;51.408;7.132;2023-06-24T00:39:04;101391.28;;;15.46;83.21
81181;BME280;70650;51.408;7.132;2023-06-24T00:41:30;101383.69;;;15.54;82.64
81181;BME280;70650;51.408;7.132;2023-06-24T00:43:56;101387.00;;;15.44;83.16
81181;BME280;70650;51.408;7.132;2023-06-24T00:46:23;101388.00;;;15.41;83.11
81181;BME280;70650;51.408;7.132;2023-06-24T00:48:51;101403.13;;;15.41;83.06
81181;BME280;70650;51.408;7.132;2023-06-24T00:51:16;101400.56;;;15.39;83.92
81181;BME280;70650;51.408;7.132;2023-06-24T00:53:41;101400.06;;;15.32;83.95
81181;BME280;70650;51.408;7.132;2023-06-24T00:56:07;101395.59;;;15.33;83.73
81181;BME280;70650;51.408;7.132;2023-06-24T00:58:33;101398.25;;;15.33;83.17
81181;BME280;70650;51.408;7.132;2023-06-24T01:01:00;101387.16;;;15.25;83.43
81181;BME280;70650;51.408;7.132;2023-06-24T01:03:27;101388.03;;;15.25;83.22
81181;BME280;70650;51.408;7.132;2023-06-24T01:05:54;101391.63;;;15.24;83.81
81181;BME280;70650;51.408;7.132;2023-06-24T01:08:19;101387.97;;;15.11;83.59
81181;BME280;70650;51.408;7.132;2023-06-24T01:10:49;101395.25;;;15.07;83.27
81181;BME280;70650;51.408;7.132;2023-06-24T01:13:15;101385.56;;;15.06;83.48
81181;BME280;70650;51.408;7.132;2023-06-24T01:15:41;101387.88;;;15.13;83.76
81181;BME280;70650;51.408;7.132;2023-06-24T01:18:29;101384.78;;;15.20;82.81
81181;BME280;70650;51.408;7.132;2023-06-24T01:20:59;101383.22;;;15.16;83.31
81181;BME280;70650;51.408;7.132;2023-06-24T01:26:19;101381.78;;;15.10;84.13
81181;BME280;70650;51.408;7.132;2023-06-24T01:36:53;101370.28;;;15.10;83.96
81181;BME280;70650;51.408;7.132;2023-06-24T01:39:21;101373.53;;;15.15;83.90
81181;BME280;70650;51.408;7.132;2023-06-24T01:41:55;101371.53;;;15.19;83.65
81181;BME280;70650;51.408;7.132;2023-06-24T01:44:24;101367.66;;;15.08;83.52
81181;BME280;70650;51.408;7.132;2023-06-24T01:46:54;101366.66;;;14.95;84.05
81181;BME280;70650;51.408;7.132;2023-06-24T01:49:23;101363.72;;;14.84;83.91
81181;BME280;70650;51.408;7.132;2023-06-24T01:51:51;101362.25;;;14.78;84.07
81181;BME280;70650;51.408;7.132;2023-06-24T01:54:17;101352.81;;;14.73;84.96
81181;BME280;70650;51.408;7.132;2023-06-24T01:56:47;101358.75;;;14.78;84.23
81181;BME280;70650;51.408;7.132;2023-06-24T01:59:16;101368.44;;;14.79;84.72
81181;BME280;70650;51.408;7.132;2023-06-24T02:01:43;101369.66;;;14.89;84.34
81181;BME280;70650;51.408;7.132;2023-06-24T02:04:10;101362.44;;;14.91;84.16
81181;BME280;70650;51.408;7.132;2023-06-24T02:06:38;101361.41;;;14.94;84.16
81181;BME280;70650;51.408;7.132;2023-06-24T02:09:05;101364.50;;;14.86;85.02
81181;BME280;70650;51.408;7.132;2023-06-24T02:11:32;101367.16;;;14.86;84.72
81181;BME280;70650;51.408;7.132;2023-06-24T02:13:59;101364.19;;;14.92;84.90
81181;BME280;70650;51.408;7.132;2023-06-24T02:16:26;101366.03;;;14.90;84.75
81181;BME280;70650;51.408;7.132;2023-06-24T02:18:53;101366.84;;;14.92;84.56
81181;BME280;70650;51.408;7.132;2023-06-24T02:21:20;101362.78;;;14.85;84.37
81181;BME280;70650;51.408;7.132;2023-06-24T02:23:47;101364.69;;;14.83;84.40
81181;BME280;70650;51.408;7.132;2023-06-24T02:26:13;101358.66;;;14.79;84.11
81181;BME280;70650;51.408;7.132;2023-06-24T02:28:40;101365.19;;;14.74;84.12
81181;BME280;70650;51.408;7.132;2023-06-24T02:31:08;101362.94;;;14.66;84.91
81181;BME280;70650;51.408;7.132;2023-06-24T02:33:34;101364.84;;;14.64;84.59
81181;BME280;70650;51.408;7.132;2023-06-24T02:35:59;101361.38;;;14.62;85.15
81181;BME280;70650;51.408;7.132;2023-06-24T02:38:24;101353.00;;;14.70;84.56
81181;BME280;70650;51.408;7.132;2023-06-24T02:40:50;101353.69;;;14.89;83.76
81181;BME280;70650;51.408;7.132;2023-06-24T02:43:17;101348.69;;;14.83;84.36
81181;BME280;70650;51.408;7.132;2023-06-24T02:45:44;101353.28;;;14.81;84.33
81181;BME280;70650;51.408;7.132;2023-06-24T02:48:11;101355.56;;;14.71;84.32
81181;BME280;70650;51.408;7.132;2023-06-24T02:50:38;101355.72;;;14.68;84.80
81181;BME280;70650;51.408;7.132;2023-06-24T02:53:06;101354.53;;;14.74;84.46
81181;BME280;70650;51.408;7.132;2023-06-24T02:55:33;101356.53;;;14.70;84.56
81181;BME280;70650;51.408;7.132;2023-06-24T02:57:59;101350.69;;;14.64;84.54
81181;BME280;70650;51.408;7.132;2023-06-24T03:00:25;101354.09;;;14.66;84.41
81181;BME280;70650;51.408;7.132;2023-06-24T03:02:51;101354.59;;;14.56;84.65
81181;BME280;70650;51.408;7.132;2023-06-24T03:05:17;101355.53;;;14.55;84.44
81181;BME280;70650;51.408;7.132;2023-06-24T03:07:44;101355.22;;;14.62;84.40
81181;BME280;70650;51.408;7.132;2023-06-24T03:10:10;101361.63;;;14.57;83.92
81181;BME280;70650;51.408;7.132;2023-06-24T03:12:36;101354.78;;;14.53;84.21
81181;BME280;70650;51.408;7.132;2023-06-24T03:15:01;101364.63;;;14.51;84.33
81181;BME280;70650;51.408;7.132;2023-06-24T03:17:27;101368.25;;;14.50;84.43
81181;BME280;70650;51.408;7.132;2023-06-24T03:19:52;101364.63;;;14.51;84.72
81181;BME280;70650;51.408;7.132;2023-06-24T03:22:17;101361.13;;;14.51;84.19
81181;BME280;70650;51.408;7.132;2023-06-24T03:24:43;101368.44;;;14.47;84.45
81181;BME280;70650;51.408;7.132;2023-06-24T03:27:09;101358.53;;;14.49;84.51
81181;BME280;70650;51.408;7.132;2023-06-24T03:29:34;101364.47;;;14.54;84.71
81181;BME280;70650;51.408;7.132;2023-06-24T03:31:59;101358.38;;;14.52;84.65
81181;BME280;70650;51.408;7.132;2023-06-24T03:34:25;101349.47;;;14.53;84.48
81181;BME280;70650;51.408;7.132;2023-06-24T03:36:52;101358.22;;;14.55;85.13
81181;BME280;70650;51.408;7.132;2023-06-24T03:39:19;101361.47;;;14.61;84.77
81181;BME280;70650;51.408;7.132;2023-06-24T03:41:44;101358.66;;;14.64;84.44
81181;BME280;70650;51.408;7.132;2023-06-24T03:44:10;101364.13;;;14.61;84.89
81181;BME280;70650;51.408;7.132;2023-06-24T03:46:35;101370.16;;;14.64;84.91
81181;BME280;70650;51.408;7.132;2023-06-24T03:49:01;101372.84;;;14.64;85.01
81181;BME280;70650;51.408;7.132;2023-06-24T03:51:27;101368.19;;;14.68;84.83
81181;BME280;70650;51.408;7.132;2023-06-24T03:53:52;101372.41;;;14.72;84.15
81181;BME280;70650;51.408;7.132;2023-06-24T03:56:18;101362.69;;;14.71;84.42
81181;BME280;70650;51.408;7.132;2023-06-24T03:58:43;101378.34;;;14.77;84.08
81181;BME280;70650;51.408;7.132;2023-06-24T04:01:09;101377.03;;;14.84;83.93
81181;BME280;70650;51.408;7.132;2023-06-24T04:03:34;101379.09;;;14.79;84.03
81181;BME280;70650;51.408;7.132;2023-06-24T04:06:00;101389.50;;;14.83;84.18
81181;BME280;70650;51.408;7.132;2023-06-24T04:08:27;101375.22;;;14.84;83.97
81181;BME280;70650;51.408;7.132;2023-06-24T04:10:55;101382.22;;;14.87;84.03
81181;BME280;70650;51.408;7.132;2023-06-24T04:13:20;101384.19;;;14.99;83.12
81181;BME280;70650;51.408;7.132;2023-06-24T04:15:45;101383.22;;;15.00;83.27
81181;BME280;70650;51.408;7.132;2023-06-24T04:18:11;101384.00;;;15.02;83.12
81181;BME280;70650;51.408;7.132;2023-06-24T04:20:36;101388.31;;;15.05;83.15
81181;BME280;70650;51.408;7.132;2023-06-24T04:23:01;101384.78;;;15.04;83.01
81181;BME280;70650;51.408;7.132;2023-06-24T04:25:27;101377.41;;;15.09;83.18
81181;BME280;70650;51.408;7.132;2023-06-24T04:27:52;101382.63;;;15.27;82.29
81181;BME280;70650;51.408;7.132;2023-06-24T04:30:17;101376.50;;;15.41;82.10
81181;BME280;70650;51.408;7.132;2023-06-24T04:32:43;101375.53;;;15.42;81.84
81181;BME280;70650;51.408;7.132;2023-06-24T04:35:09;101372.34;;;15.51;81.66
81181;BME280;70650;51.408;7.132;2023-06-24T04:37:34;101376.13;;;15.62;80.32
81181;BME280;70650;51.408;7.132;2023-06-24T04:39:59;101385.91;;;15.62;81.69
81181;BME280;70650;51.408;7.132;2023-06-24T04:42:24;101389.19;;;15.67;80.77
81181;BME280;70650;51.408;7.132;2023-06-24T04:44:52;101393.56;;;15.68;80.77
81181;BME280;70650;51.408;7.132;2023-06-24T04:47:18;101392.47;;;15.72;80.75
81181;BME280;70650;51.408;7.132;2023-06-24T04:49:43;101388.63;;;15.76;80.89
81181;BME280;70650;51.408;7.132;2023-06-24T04:52:08;101390.28;;;15.79;80.15
81181;BME280;70650;51.408;7.132;2023-06-24T04:54:35;101390.28;;;15.79;80.31
81181;BME280;70650;51.408;7.132;2023-06-24T04:57:00;101393.97;;;15.76;80.42
81181;BME280;70650;51.408;7.132;2023-06-24T04:59:26;101391.25;;;15.78;80.86
81181;BME280;70650;51.408;7.132;2023-06-24T05:01:51;101388.56;;;15.78;80.69
81181;BME280;70650;51.408;7.132;2023-06-24T05:04:16;101384.00;;;15.80;80.19
81181;BME280;70650;51.408;7.132;2023-06-24T05:06:42;101384.84;;;15.80;79.57
81181;BME280;70650;51.408;7.132;2023-06-24T05:09:07;101379.16;;;15.86;80.63
81181;BME280;70650;51.408;7.132;2023-06-24T05:11:32;101379.56;;;15.95;80.58
81181;BME280;70650;51.408;7.132;2023-06-24T05:13:58;101380.16;;;16.00;79.78
81181;BME280;70650;51.408;7.132;2023-06-24T05:16:23;101385.28;;;16.03;80.28
81181;BME280;70650;51.408;7.132;2023-06-24T05:18:49;101387.00;;;16.04;80.78
81181;BME280;70650;51.408;7.132;2023-06-24T05:21:15;101380.16;;;16.00;80.48
81181;BME280;70650;51.408;7.132;2023-06-24T05:23:40;101386.34;;;16.00;80.20
81181;BME280;70650;51.408;7.132;2023-06-24T05:26:05;101383.56;;;16.02;80.65
81181;BME280;70650;51.408;7.132;2023-06-24T05:28:31;101388.69;;;16.05;80.86
81181;BME280;70650;51.408;7.132;2023-06-24T05:30:56;101385.75;;;16.09;82.04
81181;BME280;70650;51.408;7.132;2023-06-24T05:33:21;101391.69;;;16.14;82.20
81181;BME280;70650;51.408;7.132;2023-06-24T05:35:47;101389.41;;;16.23;82.02
81181;BME280;70650;51.408;7.132;2023-06-24T05:38:12;101389.63;;;16.34;82.27
81181;BME280;70650;51.408;7.132;2023-06-24T05:40:38;101384.38;;;16.47;81.67
81181;BME280;70650;51.408;7.132;2023-06-24T05:43:03;101392.19;;;16.78;76.67
81181;BME280;70650;51.408;7.132;2023-06-24T05:45:28;101384.81;;;17.37;72.37
81181;BME280;70650;51.408;7.132;2023-06-24T05:47:54;101390.78;;;17.68;71.18
81181;BME280;70650;51.408;7.132;2023-06-24T05:50:19;101387.66;;;18.14;68.39
81181;BME280;70650;51.408;7.132;2023-06-24T05:52:44;101392.59;;;18.20;69.26
81181;BME280;70650;51.408;7.132;2023-06-24T05:55:09;101384.44;;;18.47;67.92
81181;BME280;70650;51.408;7.132;2023-06-24T05:57:35;101394.19;;;18.48;68.76
81181;BME280;70650;51.408;7.132;2023-06-24T06:00:00;101388.94;;;18.72;66.94
81181;BME280;70650;51.408;7.132;2023-06-24T06:02:25;101388.72;;;18.75;67.17
81181;BME280;70650;51.408;7.132;2023-06-24T06:04:51;101387.47;;;18.68;67.82
81181;BME280;70650;51.408;7.132;2023-06-24T06:07:17;101383.81;;;18.69;67.50
81181;BME280;70650;51.408;7.132;2023-06-24T06:09:42;101387.47;;;18.68;68.16
81181;BME280;70650;51.408;7.132;2023-06-24T06:12:07;101383.84;;;18.93;67.40
81181;BME280;70650;51.408;7.132;2023-06-24T06:14:33;101388.25;;;18.94;67.58
81181;BME280;70650;51.408;7.132;2023-06-24T06:16:58;101385.63;;;19.05;67.91
81181;BME280;70650;51.408;7.132;2023-06-24T06:19:24;101389.59;;;19.12;67.47
81181;BME280;70650;51.408;7.132;2023-06-24T06:21:49;101392.44;;;19.22;67.81
81181;BME280;70650;51.408;7.132;2023-06-24T06:24:17;101394.13;;;19.36;67.01
81181;BME280;70650;51.408;7.132;2023-06-24T06:26:43;101409.25;;;19.37;67.61
81181;BME280;70650;51.408;7.132;2023-06-24T06:29:10;101400.78;;;19.54;66.61
81181;BME280;70650;51.408;7.132;2023-06-24T06:31:35;101400.66;;;19.55;66.16
81181;BME280;70650;51.408;7.132;2023-06-24T06:34:00;101404.00;;;19.59;67.24
81181;BME280;70650;51.408;7.132;2023-06-24T06:36:27;101403.03;;;19.60;66.75
81181;BME280;70650;51.408;7.132;2023-06-24T06:38:52;101407.72;;;19.56;68.20
81181;BME280;70650;51.408;7.132;2023-06-24T06:41:17;101406.81;;;19.45;67.33
81181;BME280;70650;51.408;7.132;2023-06-24T06:43:49;101403.28;;;19.44;66.99
81181;BME280;70650;51.408;7.132;2023-06-24T06:46:14;101414.47;;;19.38;67.24
81181;BME280;70650;51.408;7.132;2023-06-24T06:48:39;101415.56;;;19.36;67.28
81181;BME280;70650;51.408;7.132;2023-06-24T06:51:05;101410.66;;;19.29;68.03
81181;BME280;70650;51.408;7.132;2023-06-24T06:53:31;101416.66;;;19.33;67.14
81181;BME280;70650;51.408;7.132;2023-06-24T06:55:56;101420.47;;;19.42;68.07
81181;BME280;70650;51.408;7.132;2023-06-24T06:58:23;101419.06;;;19.73;66.46
81181;BME280;70650;51.408;7.132;2023-06-24T07:00:49;101431.41;;;19.75;66.35
81181;BME280;70650;51.408;7.132;2023-06-24T07:03:14;101422.16;;;19.91;66.01
81181;BME280;70650;51.408;7.132;2023-06-24T07:05:39;101418.56;;;20.03;65.79
81181;BME280;70650;51.408;7.132;2023-06-24T07:08:05;101428.22;;;20.05;66.15
81181;BME280;70650;51.408;7.132;2023-06-24T07:10:30;101426.19;;;20.20;65.40
81181;BME280;70650;51.408;7.132;2023-06-24T07:12:55;101434.13;;;20.22;66.38
81181;BME280;70650;51.408;7.132;2023-06-24T07:15:24;101426.28;;;20.30;66.08
81181;BME280;70650;51.408;7.132;2023-06-24T07:17:49;101428.50;;;20.36;66.50
81181;BME280;70650;51.408;7.132;2023-06-24T07:20:15;101426.50;;;20.51;65.38
81181;BME280;70650;51.408;7.132;2023-06-24T07:22:40;101426.13;;;20.67;65.36
81181;BME280;70650;51.408;7.132;2023-06-24T07:25:05;101426.00;;;20.46;66.31
81181;BME280;70650;51.408;7.132;2023-06-24T07:27:31;101428.47;;;20.49;67.35
81181;BME280;70650;51.408;7.132;2023-06-24T07:29:56;101429.03;;;20.52;67.04
81181;BME280;70650;51.408;7.132;2023-06-24T07:32:21;101430.25;;;20.37;67.14
81181;BME280;70650;51.408;7.132;2023-06-24T07:34:47;101435.53;;;20.50;67.00
81181;BME280;70650;51.408;7.132;2023-06-24T07:37:12;101443.25;;;20.66;67.59
81181;BME280;70650;51.408;7.132;2023-06-24T07:39:37;101439.94;;;20.73;66.75
81181;BME280;70650;51.408;7.132;2023-06-24T07:42:03;101428.56;;;20.70;66.71
81181;BME280;70650;51.408;7.132;2023-06-24T07:44:28;101441.41;;;20.88;65.14
81181;BME280;70650;51.408;7.132;2023-06-24T07:46:53;101441.78;;;20.95;66.09
81181;BME280;70650;51.408;7.132;2023-06-24T07:49:19;101442.13;;;21.13;64.29
81181;BME280;70650;51.408;7.132;2023-06-24T07:51:44;101442.13;;;21.13;63.97
81181;BME280;70650;51.408;7.132;2023-06-24T07:54:10;101442.34;;;21.21;64.20
81181;BME280;70650;51.408;7.132;2023-06-24T07:56:36;101443.22;;;21.10;64.55
81181;BME280;70650;51.408;7.132;2023-06-24T07:59:01;101441.63;;;21.08;65.06
81181;BME280;70650;51.408;7.132;2023-06-24T08:01:27;101443.59;;;21.17;64.19
81181;BME280;70650;51.408;7.132;2023-06-24T08:03:52;101449.47;;;21.11;64.39
81181;BME280;70650;51.408;7.132;2023-06-24T08:06:18;101442.25;;;21.11;64.77
81181;BME280;70650;51.408;7.132;2023-06-24T08:08:43;101434.75;;;21.26;63.59
81181;BME280;70650;51.408;7.132;2023-06-24T08:11:11;101440.88;;;21.39;64.12
81181;BME280;70650;51.408;7.132;2023-06-24T08:13:36;101435.00;;;21.46;64.79
81181;BME280;70650;51.408;7.132;2023-06-24T08:16:01;101437.78;;;21.44;64.99
81181;BME280;70650;51.408;7.132;2023-06-24T08:18:27;101435.22;;;21.42;64.32
81181;BME280;70650;51.408;7.132;2023-06-24T08:20:53;101442.19;;;21.56;63.89
81181;BME280;70650;51.408;7.132;2023-06-24T08:23:18;101438.03;;;21.52;63.84
81181;BME280;70650;51.408;7.132;2023-06-24T08:25:43;101438.78;;;21.75;63.57
81181;BME280;70650;51.408;7.132;2023-06-24T08:28:08;101443.19;;;21.76;62.17
81181;BME280;70650;51.408;7.132;2023-06-24T08:30:34;101437.56;;;21.79;63.25
81181;BME280;70650;51.408;7.132;2023-06-24T08:32:59;101435.59;;;21.81;61.27
81181;BME280;70650;51.408;7.132;2023-06-24T08:35:24;101435.38;;;21.73;62.40
81181;BME280;70650;51.408;7.132;2023-06-24T08:37:49;101441.72;;;21.72;62.86
81181;BME280;70650;51.408;7.132;2023-06-24T08:40:15;101435.34;;;21.84;62.05
81181;BME280;70650;51.408;7.132;2023-06-24T08:42:40;101437.75;;;21.87;60.96
81181;BME280;70650;51.408;7.132;2023-06-24T08:45:07;101437.03;;;21.85;60.27
81181;BME280;70650;51.408;7.132;2023-06-24T08:47:33;101432.59;;;21.95;60.34
81181;BME280;70650;51.408;7.132;2023-06-24T08:50:12;101427.00;;;22.08;59.55
81181;BME280;70650;51.408;7.132;2023-06-24T08:52:43;101434.38;;;22.27;58.58
81181;BME280;70650;51.408;7.132;2023-06-24T08:55:12;101429.28;;;22.24;60.29
81181;BME280;70650;51.408;7.132;2023-06-24T08:57:39;101430.63;;;22.39;58.70
81181;BME280;70650;51.408;7.132;2023-06-24T09:00:06;101433.72;;;22.35;59.04
81181;BME280;70650;51.408;7.132;2023-06-24T09:02:34;101424.69;;;22.45;58.27
81181;BME280;70650;51.408;7.132;2023-06-24T09:05:04;101423.13;;;22.64;58.23
81181;BME280;70650;51.408;7.132;2023-06-24T09:07:29;101429.34;;;22.64;57.22
81181;BME280;70650;51.408;7.132;2023-06-24T09:09:54;101433.13;;;22.83;56.35
81181;BME280;70650;51.408;7.132;2023-06-24T09:12:20;101427.72;;;22.83;54.19
81181;BME280;70650;51.408;7.132;2023-06-24T09:14:49;101424.97;;;22.73;55.01
81181;BME280;70650;51.408;7.132;2023-06-24T09:17:15;101426.81;;;22.93;55.08
81181;BME280;70650;51.408;7.132;2023-06-24T09:19:40;101422.03;;;22.76;54.04
81181;BME280;70650;51.408;7.132;2023-06-24T09:22:08;101416.31;;;22.69;55.38
81181;BME280;70650;51.408;7.132;2023-06-24T09:24:35;101415.91;;;22.74;54.19
81181;BME280;70650;51.408;7.132;2023-06-24T09:27:01;101408.28;;;22.48;54.33
81181;BME280;70650;51.408;7.132;2023-06-24T09:29:28;101416.06;;;22.52;52.40
81181;BME280;70650;51.408;7.132;2023-06-24T09:31:54;101411.34;;;22.74;52.82
81181;BME280;70650;51.408;7.132;2023-06-24T09:34:22;101405.41;;;22.71;53.05
81181;BME280;70650;51.408;7.132;2023-06-24T09:36:55;101410.03;;;22.59;52.74
81181;BME280;70650;51.408;7.132;2023-06-24T09:39:21;101399.09;;;22.61;53.52
81181;BME280;70650;51.408;7.132;2023-06-24T09:41:50;101404.94;;;22.96;55.62
81181;BME280;70650;51.408;7.132;2023-06-24T09:44:16;101403.72;;;22.80;53.59
81181;BME280;70650;51.408;7.132;2023-06-24T09:46:44;101391.47;;;22.66;54.96
81181;BME280;70650;51.408;7.132;2023-06-24T09:49:10;101397.84;;;22.65;55.40
81181;BME280;70650;51.408;7.132;2023-06-24T09:51:38;101399.16;;;22.80;52.75
81181;BME280;70650;51.408;7.132;2023-06-24T09:54:06;101395.19;;;23.05;54.22
81181;BME280;70650;51.408;7.132;2023-06-24T09:56:34;101394.63;;;23.11;54.55
81181;BME280;70650;51.408;7.132;2023-06-24T09:59:00;101388.94;;;23.05;52.20
81181;BME280;70650;51.408;7.132;2023-06-24T10:01:27;101391.25;;;23.48;53.21
81181;BME280;70650;51.408;7.132;2023-06-24T10:03:53;101381.03;;;23.51;51.11
81181;BME280;70650;51.408;7.132;2023-06-24T10:06:19;101383.34;;;23.66;49.89
81181;BME280;70650;51.408;7.132;2023-06-24T10:08:44;101386.03;;;23.85;51.50
81181;BME280;70650;51.408;7.132;2023-06-24T10:11:10;101377.63;;;23.49;49.64
81181;BME280;70650;51.408;7.132;2023-06-24T10:13:35;101374.78;;;23.32;50.15
81181;BME280;70650;51.408;7.132;2023-06-24T10:16:00;101375.34;;;23.35;50.74
81181;BME280;70650;51.408;7.132;2023-06-24T10:21:01;101362.25;;;23.60;48.03
81181;BME280;70650;51.408;7.132;2023-06-24T10:26:07;101373.22;;;23.97;47.35
81181;BME280;70650;51.408;7.132;2023-06-24T10:40:17;101342.41;;;23.80;46.70
81181;BME280;70650;51.408;7.132;2023-06-24T10:44:50;101340.13;;;23.85;46.70
81181;BME280;70650;51.408;7.132;2023-06-24T10:47:18;101332.59;;;23.89;46.36
81181;BME280;70650;51.408;7.132;2023-06-24T10:49:44;101329.84;;;23.98;44.97
81181;BME280;70650;51.408;7.132;2023-06-24T10:52:10;101333.22;;;24.10;46.23
81181;BME280;70650;51.408;7.132;2023-06-24T10:54:40;101328.78;;;24.19;44.29
81181;BME280;70650;51.408;7.132;2023-06-24T10:57:07;101333.72;;;24.33;46.16
81181;BME280;70650;51.408;7.132;2023-06-24T10:59:44;101335.44;;;24.34;43.20
81181;BME280;70650;51.408;7.132;2023-06-24T11:02:25;101331.31;;;24.30;42.53
81181;BME280;70650;51.408;7.132;2023-06-24T11:04:53;101329.91;;;24.26;43.43
81181;BME280;70650;51.408;7.132;2023-06-24T11:07:20;101324.69;;;24.15;42.78
81181;BME280;70650;51.408;7.132;2023-06-24T11:09:50;101322.91;;;24.33;41.98
81181;BME280;70650;51.408;7.132;2023-06-24T11:12:15;101314.94;;;24.41;44.62
81181;BME280;70650;51.408;7.132;2023-06-24T11:14:41;101313.75;;;24.53;40.14
81181;BME280;70650;51.408;7.132;2023-06-24T11:17:06;101311.88;;;24.54;42.28
81181;BME280;70650;51.408;7.132;2023-06-24T11:19:32;101318.34;;;24.43;39.87
81181;BME280;70650;51.408;7.132;2023-06-24T11:22:01;101310.88;;;24.55;40.95
81181;BME280;70650;51.408;7.132;2023-06-24T11:24:30;101310.47;;;24.77;41.29
81181;BME280;70650;51.408;7.132;2023-06-24T11:26:55;101314.72;;;24.62;40.77
81181;BME280;70650;51.408;7.132;2023-06-24T11:29:21;101305.13;;;24.68;41.64
81181;BME280;70650;51.408;7.132;2023-06-24T11:31:47;101305.81;;;24.70;40.96
81181;BME280;70650;51.408;7.132;2023-06-24T11:34:12;101306.38;;;24.73;40.28
81181;BME280;70650;51.408;7.132;2023-06-24T11:36:38;101308.16;;;24.82;41.28
81181;BME280;70650;51.408;7.132;2023-06-24T11:39:05;101311.94;;;24.90;40.29
81181;BME280;70650;51.408;7.132;2023-06-24T11:41:30;101311.44;;;24.86;41.33
81181;BME280;70650;51.408;7.132;2023-06-24T11:43:59;101298.38;;;24.99;40.90
81181;BME280;70650;51.408;7.132;2023-06-24T11:46:28;101305.06;;;24.95;41.33
81181;BME280;70650;51.408;7.132;2023-06-24T11:49:08;101302.56;;;25.11;41.84
81181;BME280;70650;51.408;7.132;2023-06-24T11:51:34;101312.72;;;25.09;41.49
81181;BME280;70650;51.408;7.132;2023-06-24T11:54:01;101309.25;;;24.90;39.11
81181;BME280;70650;51.408;7.132;2023-06-24T11:56:41;101312.91;;;24.98;39.36
81181;BME280;70650;51.408;7.132;2023-06-24T11:59:18;101301.94;;;25.18;40.68
81181;BME280;70650;51.408;7.132;2023-06-24T12:01:54;101292.34;;;25.41;39.73
81181;BME280;70650;51.408;7.132;2023-06-24T12:04:20;101287.88;;;25.32;39.26
81181;BME280;70650;51.408;7.132;2023-06-24T12:06:45;101298.41;;;25.17;39.88
81181;BME280;70650;51.408;7.132;2023-06-24T12:09:11;101283.25;;;25.06;39.86
81181;BME280;70650;51.408;7.132;2023-06-24T12:11:37;101290.59;;;25.32;38.47
81181;BME280;70650;51.408;7.132;2023-06-24T12:14:02;101280.59;;;25.50;41.34
81181;BME280;70650;51.408;7.132;2023-06-24T12:16:29;101285.44;;;25.64;38.26
81181;BME280;70650;51.408;7.132;2023-06-24T12:18:54;101281.00;;;26.07;39.09
81181;BME280;70650;51.408;7.132;2023-06-24T12:21:20;101272.28;;;25.52;35.94
81181;BME280;70650;51.408;7.132;2023-06-24T12:23:45;101271.06;;;25.46;36.21
81181;BME280;70650;51.408;7.132;2023-06-24T12:26:11;101269.19;;;25.64;38.88
81181;BME280;70650;51.408;7.132;2023-06-24T12:28:36;101273.94;;;25.88;36.36
81181;BME280;70650;51.408;7.132;2023-06-24T12:31:02;101270.13;;;25.99;37.33
81181;BME280;70650;51.408;7.132;2023-06-24T12:33:30;101262.22;;;26.14;37.08
81181;BME280;70650;51.408;7.132;2023-06-24T12:35:55;101257.91;;;25.95;37.67
81181;BME280;70650;51.408;7.132;2023-06-24T12:38:20;101254.78;;;26.16;37.63
81181;BME280;70650;51.408;7.132;2023-06-24T12:40:46;101249.44;;;26.32;41.25
81181;BME280;70650;51.408;7.132;2023-06-24T12:43:11;101251.78;;;26.27;38.10
81181;BME280;70650;51.408;7.132;2023-06-24T12:45:37;101250.94;;;26.27;38.39
81181;BME280;70650;51.408;7.132;2023-06-24T12:48:03;101243.75;;;26.44;37.07
81181;BME280;70650;51.408;7.132;2023-06-24T12:50:28;101254.66;;;26.68;36.03
81181;BME280;70650;51.408;7.132;2023-06-24T12:52:57;101256.88;;;26.81;34.49
81181;BME280;70650;51.408;7.132;2023-06-24T12:55:22;101251.81;;;26.86;33.44
81181;BME280;70650;51.408;7.132;2023-06-24T12:57:47;101249.69;;;27.30;34.56
81181;BME280;70650;51.408;7.132;2023-06-24T13:00:13;101249.13;;;27.59;34.24
81181;BME280;70650;51.408;7.132;2023-06-24T13:02:38;101252.97;;;28.06;34.78
81181;BME280;70650;51.408;7.132;2023-06-24T13:05:04;101252.81;;;28.46;33.47
81181;BME280;70650;51.408;7.132;2023-06-24T13:07:30;101251.38;;;27.31;33.67
81181;BME280;70650;51.408;7.132;2023-06-24T13:09:55;101255.09;;;27.14;35.18
81181;BME280;70650;51.408;7.132;2023-06-24T13:12:20;101255.34;;;26.70;34.68
81181;BME280;70650;51.408;7.132;2023-06-24T13:14:46;101247.31;;;27.19;33.17